createdAt,value
2022-11-19T00:04:01.468Z,97889.67
2022-11-19T00:09:05.658Z,97893.30
2022-11-19T00:14:12.666Z,97888.42
2022-11-19T00:19:14.922Z,97887.08
2022-11-19T00:24:17.066Z,97898.11
2022-11-19T00:29:19.159Z,97904.84
2022-11-19T00:34:22.964Z,97902.79
2022-11-19T00:39:24.815Z,97904.16
2022-11-19T00:44:26.694Z,97909.86
2022-11-19T00:49:28.556Z,97910.80
2022-11-19T00:54:30.724Z,97912.83
2022-11-19T00:59:32.621Z,97910.66
2022-11-19T01:04:34.555Z,97920.42
2022-11-19T01:09:36.465Z,97927.45
2022-11-19T01:14:38.449Z,97934.67
2022-11-19T01:19:40.367Z,97945.27
2022-11-19T01:24:42.185Z,97938.89
2022-11-19T01:29:44.112Z,97942.66
2022-11-19T01:34:46.032Z,97950.19
2022-11-19T01:39:48.013Z,97950.16
2022-11-19T01:45:02.701Z,97940.34
2022-11-19T01:50:05.750Z,97946.11
2022-11-19T01:55:08.686Z,97952.31
2022-11-19T02:00:11.644Z,97948.34
2022-11-19T02:05:13.958Z,97948.55
2022-11-19T02:10:16.131Z,97950.61
2022-11-19T02:15:23.244Z,97943.80
2022-11-19T02:20:34.203Z,97949.02
2022-11-19T02:25:38.989Z,97964.27
2022-11-19T02:30:46.710Z,97976.05
2022-11-19T02:35:58.854Z,97984.29
2022-11-19T02:41:32.289Z,97987.86
2022-11-19T02:46:34.363Z,97990.58
2022-11-19T02:51:36.398Z,97992.48
2022-11-19T02:56:52.056Z,97998.85
2022-11-19T03:02:12.620Z,97992.89
2022-11-19T03:07:18.291Z,97990.75
2022-11-19T03:12:35.545Z,98000.17
2022-11-19T03:18:09.685Z,98007.98
2022-11-19T03:23:27.171Z,98007.00
2022-11-19T03:28:34.233Z,98020.57
2022-11-19T03:33:47.487Z,98020.33
2022-11-19T03:39:04.295Z,98025.23
2022-11-19T03:44:18.863Z,98031.48
2022-11-19T03:49:31.708Z,98037.66
2022-11-19T03:54:34.268Z,98050.80
2022-11-19T03:59:36.234Z,98054.77
2022-11-19T04:04:39.031Z,98053.42
2022-11-19T04:09:42.028Z,98060.65
2022-11-19T04:14:43.932Z,98067.94
2022-11-19T04:19:46.730Z,98071.11
2022-11-19T04:24:48.626Z,98075.54
2022-11-19T04:29:50.501Z,98079.85
2022-11-19T04:34:52.361Z,98074.05
2022-11-19T04:39:54.160Z,98084.77
2022-11-19T04:44:56.004Z,98090.61
2022-11-19T04:49:57.828Z,98098.67
2022-11-19T04:54:59.640Z,98101.54
2022-11-19T05:00:01.570Z,98104.70
2022-11-19T05:05:03.598Z,98108.33
2022-11-19T05:10:05.902Z,98114.80
2022-11-19T05:15:08.713Z,98119.95
2022-11-19T05:20:10.848Z,98117.06
2022-11-19T05:25:12.765Z,98123.95
2022-11-19T05:30:15.227Z,98129.52
2022-11-19T05:35:17.214Z,98137.23
2022-11-19T05:40:19.078Z,98144.27
2022-11-19T05:45:21.197Z,98157.17
2022-11-19T05:50:23.145Z,98157.86
2022-11-19T05:55:25.128Z,98167.67
2022-11-19T06:00:27.027Z,98173.55
2022-11-19T06:05:28.821Z,98181.23
2022-11-19T06:10:30.625Z,98190.09
2022-11-19T06:15:32.454Z,98197.27
2022-11-19T06:20:34.319Z,98207.20
2022-11-19T06:25:36.258Z,98221.11
2022-11-19T06:30:38.281Z,98226.17
2022-11-19T06:35:40.134Z,98230.36
2022-11-19T06:40:42.822Z,98234.75
2022-11-19T06:45:44.726Z,98239.05
2022-11-19T06:50:47.221Z,98247.42
2022-11-19T06:55:49.111Z,98250.73
2022-11-19T07:00:51.150Z,98249.27
2022-11-19T07:05:59.211Z,98254.46
2022-11-19T07:11:22.392Z,98259.08
2022-11-19T07:16:33.253Z,98266.45
2022-11-19T07:21:36.283Z,98268.67
2022-11-19T07:26:38.541Z,98272.80
2022-11-19T07:31:40.581Z,98272.67
2022-11-19T07:36:42.869Z,98274.59
2022-11-19T07:42:03.638Z,98275.01
2022-11-19T07:47:08.363Z,98271.07
2022-11-19T07:52:10.221Z,98269.45
2022-11-19T07:57:12.277Z,98272.64
2022-11-19T08:02:15.179Z,98281.52
2022-11-19T08:07:17.311Z,98284.38
2022-11-19T08:12:19.418Z,98287.60
2022-11-19T08:17:40.022Z,98283.83
2022-11-19T08:22:42.932Z,98287.31
2022-11-19T08:27:44.802Z,98286.14
2022-11-19T08:32:46.812Z,98286.77
2022-11-19T08:37:48.829Z,98290.89
2022-11-19T08:42:59.945Z,98298.30
2022-11-19T08:48:05.572Z,98300.16
2022-11-19T08:53:07.518Z,98299.25
2022-11-19T08:58:11.435Z,98305.66
2022-11-19T09:03:13.266Z,98309.98
2022-11-19T09:08:15.131Z,98315.89
2022-11-19T09:13:17.024Z,98325.90
2022-11-19T09:18:18.932Z,98325.59
2022-11-19T09:23:21.559Z,98326.96
2022-11-19T09:28:23.426Z,98330.20
2022-11-19T09:33:26.124Z,98334.81
2022-11-19T09:38:28.498Z,98339.69
2022-11-19T09:43:49.213Z,98339.31
2022-11-19T09:48:55.033Z,98339.66
2022-11-19T09:54:05.981Z,98340.30
2022-11-19T09:59:21.733Z,98338.04
2022-11-19T10:04:26.992Z,98331.27
2022-11-19T10:09:31.991Z,98328.70
2022-11-19T10:14:43.184Z,98333.27
2022-11-19T10:20:10.291Z,98333.16
2022-11-19T10:25:22.952Z,98329.83
2022-11-19T10:30:29.025Z,98331.11
2022-11-19T10:35:39.039Z,98332.42
2022-11-19T10:40:44.985Z,98324.23
2022-11-19T10:45:46.793Z,98322.58
2022-11-19T10:50:49.641Z,98327.40
2022-11-19T10:55:57.773Z,98328.02
2022-11-19T11:01:02.658Z,98326.23
2022-11-19T11:06:07.912Z,98324.47
2022-11-19T11:11:11.070Z,98324.14
2022-11-19T11:16:20.169Z,98317.89
2022-11-19T11:21:30.606Z,98318.34
2022-11-19T11:26:34.815Z,98311.39
2022-11-19T11:31:47.348Z,98303.52
2022-11-19T11:36:49.230Z,98301.95
2022-11-19T11:42:05.410Z,98298.66
2022-11-19T11:47:15.165Z,98302.70
2022-11-19T11:52:33.695Z,98307.38
2022-11-19T11:57:49.992Z,98314.56
2022-11-19T12:03:05.945Z,98318.66
2022-11-19T12:08:27.107Z,98323.33
2022-11-19T12:13:43.968Z,98322.08
2022-11-19T12:18:45.790Z,98321.43
2022-11-19T12:24:15.910Z,98324.54
2022-11-19T12:29:36.673Z,98323.31
2022-11-19T12:34:57.147Z,98328.94
2022-11-19T12:40:20.602Z,98326.66
2022-11-19T12:45:30.628Z,98331.20
2022-11-19T12:50:50.937Z,98332.83
2022-11-19T12:56:15.691Z,98330.89
2022-11-19T13:01:27.494Z,98340.33
2022-11-19T13:06:41.721Z,98341.34
2022-11-19T13:11:50.024Z,98342.20
2022-11-19T13:16:54.598Z,98341.77
2022-11-19T13:22:02.662Z,98344.50
2022-11-19T13:27:09.667Z,98344.52
2022-11-19T13:32:48.023Z,98340.73
2022-11-19T13:38:02.918Z,98338.88
2022-11-19T13:43:32.533Z,98338.77
2022-11-19T13:48:41.689Z,98340.00
2022-11-19T13:53:46.323Z,98344.77
2022-11-19T13:58:51.757Z,98339.88
2022-11-19T14:04:28.038Z,98345.43
2022-11-19T14:09:48.739Z,98352.34
2022-11-19T14:15:40.392Z,98360.58
2022-11-19T14:21:02.978Z,98357.27
2022-11-19T14:26:22.543Z,98357.20
2022-11-19T14:31:24.543Z,98356.82
2022-11-19T14:36:29.602Z,98360.52
2022-11-19T14:41:33.893Z,98366.02
2022-11-19T14:46:45.796Z,98359.54
2022-11-19T14:51:53.656Z,98351.42
2022-11-19T14:57:13.683Z,98357.02
2022-11-19T15:02:34.601Z,98367.55
2022-11-19T15:07:39.951Z,98367.48
2022-11-19T15:12:44.913Z,98361.92
2022-11-19T15:17:50.876Z,98368.29
2022-11-19T15:23:06.717Z,98375.73
2022-11-19T15:28:18.846Z,98380.60
2022-11-19T15:33:47.159Z,98382.30
2022-11-19T15:38:57.616Z,98386.15
2022-11-19T15:44:04.508Z,98395.41
2022-11-19T15:49:26.949Z,98400.02
2022-11-19T15:54:34.704Z,98400.60
2022-11-19T15:59:38.406Z,98399.84
2022-11-19T16:04:41.069Z,98400.51
2022-11-19T16:09:42.963Z,98400.19
2022-11-19T16:15:12.309Z,98396.80
2022-11-19T16:20:14.125Z,98390.94
2022-11-19T16:25:31.496Z,98392.95
2022-11-19T16:30:46.429Z,98393.01
2022-11-19T16:35:52.829Z,98383.84
2022-11-19T16:41:16.030Z,98383.70
2022-11-19T16:46:22.358Z,98382.45
2022-11-19T16:51:31.881Z,98380.11
2022-11-19T16:56:45.935Z,98376.06
2022-11-19T17:01:54.072Z,98373.67
2022-11-19T17:06:57.748Z,98367.52
2022-11-19T17:12:18.024Z,98361.28
2022-11-19T17:17:39.980Z,98360.56
2022-11-19T17:22:42.564Z,98362.26
2022-11-19T17:27:51.399Z,98361.30
2022-11-19T17:32:54.588Z,98365.31
2022-11-19T17:37:58.931Z,98374.96
2022-11-19T17:43:19.650Z,98375.93
2022-11-19T17:48:24.152Z,98375.58
2022-11-19T17:53:26.133Z,98367.70
2022-11-19T17:58:28.086Z,98367.52
2022-11-19T18:03:30.045Z,98372.45
2022-11-19T18:08:33.078Z,98371.36
2022-11-19T18:13:36.826Z,98374.52
2022-11-19T18:18:38.704Z,98374.64
2022-11-19T18:23:41.954Z,98370.09
2022-11-19T18:28:47.735Z,98374.30
2022-11-19T18:33:50.930Z,98373.30
2022-11-19T18:38:55.757Z,98381.33
2022-11-19T18:44:16.417Z,98386.57
2022-11-19T18:49:18.577Z,98383.73
2022-11-19T18:54:21.042Z,98384.92
2022-11-19T18:59:23.960Z,98383.09
2022-11-19T19:04:26.538Z,98384.77
2022-11-19T19:09:28.425Z,98391.63
2022-11-19T19:14:30.293Z,98386.06
2022-11-19T19:19:32.193Z,98375.90
2022-11-19T19:24:34.101Z,98366.73
2022-11-19T19:29:35.994Z,98365.40
2022-11-19T19:34:37.891Z,98370.52
2022-11-19T19:39:39.777Z,98376.64
2022-11-19T19:44:41.673Z,98376.06
2022-11-19T19:49:43.675Z,98373.52
2022-11-19T19:54:45.556Z,98370.13
2022-11-19T19:59:47.432Z,98374.55
2022-11-19T20:04:49.322Z,98376.93
2022-11-19T20:09:51.207Z,98377.55
2022-11-19T20:14:53.101Z,98373.77
2022-11-19T20:19:54.924Z,98377.06
2022-11-19T20:24:56.765Z,98382.19
2022-11-19T20:30:00.087Z,98384.71
2022-11-19T20:35:02.160Z,98386.44
2022-11-19T20:40:04.263Z,98374.70
2022-11-19T20:45:08.407Z,98371.89
2022-11-19T20:50:10.448Z,98374.33
2022-11-19T20:55:12.364Z,98369.26
2022-11-19T21:00:15.373Z,98364.64
2022-11-19T21:05:17.354Z,98367.00
2022-11-19T21:10:19.428Z,98364.34
2022-11-19T21:15:21.228Z,98363.05
2022-11-19T21:20:23.332Z,98368.38
2022-11-19T21:25:25.260Z,98373.30
2022-11-19T21:30:27.192Z,98366.89
2022-11-19T21:35:29.065Z,98361.52
2022-11-19T21:40:30.974Z,98364.13
2022-11-19T21:45:32.948Z,98359.04
2022-11-19T21:50:38.588Z,98353.26
2022-11-19T21:55:45.001Z,98360.65
2022-11-19T22:00:47.135Z,98364.06
2022-11-19T22:05:59.313Z,98364.66
2022-11-19T22:11:21.445Z,98363.63
2022-11-19T22:16:24.541Z,98362.90
2022-11-19T22:21:29.254Z,98366.86
2022-11-19T22:26:31.303Z,98365.23
2022-11-19T22:31:34.044Z,98367.66
2022-11-19T22:36:35.925Z,98365.81
2022-11-19T22:41:37.732Z,98360.38
2022-11-19T22:46:39.529Z,98365.67
2022-11-19T22:51:41.521Z,98370.71
2022-11-19T22:56:43.504Z,98364.49
2022-11-19T23:01:45.335Z,98370.89
2022-11-19T23:06:47.224Z,98365.28
2022-11-19T23:12:07.882Z,98367.27
2022-11-19T23:17:09.732Z,98372.05
2022-11-19T23:22:11.537Z,98369.04
2022-11-19T23:27:16.722Z,98367.10
2022-11-19T23:32:22.632Z,98369.23
2022-11-19T23:37:24.458Z,98362.16
2022-11-19T23:42:26.409Z,98361.04
2022-11-19T23:47:28.207Z,98349.80
2022-11-19T23:52:30.073Z,98349.67
2022-11-19T23:57:31.954Z,98348.28
